sensor_id;sensor_type;location;lat;lon;timestamp;temperature;humidity
44767;DHT22;30487;48.716;9.272;2023-08-21T00:01:59;25.50;99.90
44767;DHT22;30487;48.716;9.272;2023-08-21T00:04:25;25.50;99.90
44767;DHT22;30487;48.716;9.272;2023-08-21T00:06:51;25.40;99.90
44767;DHT22;30487;48.716;9.272;2023-08-21T00:09:16;25.50;99.90
44767;DHT22;30487;48.716;9.272;2023-08-21T00:11:42;25.50;99.90
44767;DHT22;30487;48.716;9.272;2023-08-21T00:14:07;25.30;99.90
44767;DHT22;30487;48.716;9.272;2023-08-21T00:16:33;25.10;99.90
44767;DHT22;30487;48.716;9.272;2023-08-21T00:19:00;24.90;99.90
44767;DHT22;30487;48.716;9.272;2023-08-21T00:21:25;24.80;99.90
44767;DHT22;30487;48.716;9.272;2023-08-21T00:23:51;24.80;99.90
44767;DHT22;30487;48.716;9.272;2023-08-21T00:26:16;24.90;99.90
44767;DHT22;30487;48.716;9.272;2023-08-21T00:28:42;24.90;99.90
44767;DHT22;30487;48.716;9.272;2023-08-21T00:31:07;24.90;99.90
44767;DHT22;30487;48.716;9.272;2023-08-21T00:33:33;24.90;99.90
44767;DHT22;30487;48.716;9.272;2023-08-21T00:35:59;24.80;99.90
44767;DHT22;30487;48.716;9.272;2023-08-21T00:38:25;24.70;99.90
44767;DHT22;30487;48.716;9.272;2023-08-21T00:40:51;24.60;99.90
44767;DHT22;30487;48.716;9.272;2023-08-21T00:43:16;24.50;99.90
44767;DHT22;30487;48.716;9.272;2023-08-21T00:45:44;24.50;99.90
44767;DHT22;30487;48.716;9.272;2023-08-21T00:48:11;24.40;99.90
44767;DHT22;30487;48.716;9.272;2023-08-21T00:50:36;24.40;99.90
44767;DHT22;30487;48.716;9.272;2023-08-21T00:53:02;24.40;99.90
44767;DHT22;30487;48.716;9.272;2023-08-21T00:55:32;24.50;99.90
44767;DHT22;30487;48.716;9.272;2023-08-21T00:57:58;24.60;99.90
44767;DHT22;30487;48.716;9.272;2023-08-21T01:00:25;24.70;99.90
44767;DHT22;30487;48.716;9.272;2023-08-21T01:02:52;24.70;99.90
44767;DHT22;30487;48.716;9.272;2023-08-21T01:05:18;24.70;99.90
44767;DHT22;30487;48.716;9.272;2023-08-21T01:07:51;24.70;99.90
44767;DHT22;30487;48.716;9.272;2023-08-21T01:13:23;24.80;99.90
44767;DHT22;30487;48.716;9.272;2023-08-21T01:15:51;24.80;99.90
44767;DHT22;30487;48.716;9.272;2023-08-21T01:18:18;24.80;99.90
44767;DHT22;30487;48.716;9.272;2023-08-21T01:20:46;24.80;99.90
44767;DHT22;30487;48.716;9.272;2023-08-21T01:23:44;24.80;99.90
44767;DHT22;30487;48.716;9.272;2023-08-21T01:26:10;24.80;99.90
44767;DHT22;30487;48.716;9.272;2023-08-21T01:28:36;24.80;99.90
44767;DHT22;30487;48.716;9.272;2023-08-21T01:31:15;24.80;99.90
44767;DHT22;30487;48.716;9.272;2023-08-21T01:33:59;24.80;99.90
44767;DHT22;30487;48.716;9.272;2023-08-21T01:36:28;24.80;99.90
44767;DHT22;30487;48.716;9.272;2023-08-21T01:38:54;24.70;99.90
44767;DHT22;30487;48.716;9.272;2023-08-21T01:41:23;24.50;99.90
44767;DHT22;30487;48.716;9.272;2023-08-21T01:43:49;24.40;99.90
44767;DHT22;30487;48.716;9.272;2023-08-21T01:46:15;24.40;99.90
44767;DHT22;30487;48.716;9.272;2023-08-21T01:48:40;24.10;99.90
44767;DHT22;30487;48.716;9.272;2023-08-21T01:51:06;24.00;99.90
44767;DHT22;30487;48.716;9.272;2023-08-21T01:53:31;24.00;99.90
44767;DHT22;30487;48.716;9.272;2023-08-21T01:55:57;24.10;99.90
44767;DHT22;30487;48.716;9.272;2023-08-21T01:58:22;24.00;99.90
44767;DHT22;30487;48.716;9.272;2023-08-21T02:00:48;23.80;99.90
44767;DHT22;30487;48.716;9.272;2023-08-21T02:03:14;23.80;99.90
44767;DHT22;30487;48.716;9.272;2023-08-21T02:05:40;23.80;99.90
44767;DHT22;30487;48.716;9.272;2023-08-21T02:08:08;23.80;99.90
44767;DHT22;30487;48.716;9.272;2023-08-21T02:10:34;23.90;99.90
44767;DHT22;30487;48.716;9.272;2023-08-21T02:12:59;23.90;99.90
44767;DHT22;30487;48.716;9.272;2023-08-21T02:15:25;23.80;99.90
44767;DHT22;30487;48.716;9.272;2023-08-21T02:17:51;23.80;99.90
44767;DHT22;30487;48.716;9.272;2023-08-21T02:20:16;23.70;99.90
44767;DHT22;30487;48.716;9.272;2023-08-21T02:22:42;23.70;99.90
44767;DHT22;30487;48.716;9.272;2023-08-21T02:25:07;23.70;99.90
44767;DHT22;30487;48.716;9.272;2023-08-21T02:27:33;23.80;99.90
44767;DHT22;30487;48.716;9.272;2023-08-21T02:29:59;23.70;99.90
44767;DHT22;30487;48.716;9.272;2023-08-21T02:32:24;23.60;99.90
44767;DHT22;30487;48.716;9.272;2023-08-21T02:34:50;23.60;99.90
44767;DHT22;30487;48.716;9.272;2023-08-21T02:37:15;23.60;99.90
44767;DHT22;30487;48.716;9.272;2023-08-21T02:39:41;23.70;99.90
44767;DHT22;30487;48.716;9.272;2023-08-21T02:42:06;23.60;99.90
44767;DHT22;30487;48.716;9.272;2023-08-21T02:44:32;23.60;99.90
44767;DHT22;30487;48.716;9.272;2023-08-21T02:46:57;23.70;99.90
44767;DHT22;30487;48.716;9.272;2023-08-21T02:49:23;23.70;99.90
44767;DHT22;30487;48.716;9.272;2023-08-21T02:51:49;23.70;99.90
44767;DHT22;30487;48.716;9.272;2023-08-21T02:54:14;23.80;99.90
44767;DHT22;30487;48.716;9.272;2023-08-21T02:56:40;23.70;99.90
44767;DHT22;30487;48.716;9.272;2023-08-21T02:59:05;23.50;99.90
44767;DHT22;30487;48.716;9.272;2023-08-21T03:01:32;23.30;99.90
44767;DHT22;30487;48.716;9.272;2023-08-21T03:03:57;23.20;99.90
44767;DHT22;30487;48.716;9.272;2023-08-21T03:06:23;23.10;99.90
44767;DHT22;30487;48.716;9.272;2023-08-21T03:08:48;23.10;99.90
44767;DHT22;30487;48.716;9.272;2023-08-21T03:11:14;23.00;99.90
44767;DHT22;30487;48.716;9.272;2023-08-21T03:13:39;22.90;99.90
44767;DHT22;30487;48.716;9.272;2023-08-21T03:16:06;22.90;99.90
44767;DHT22;30487;48.716;9.272;2023-08-21T03:18:32;22.90;99.90
44767;DHT22;30487;48.716;9.272;2023-08-21T03:20:58;22.80;99.90
44767;DHT22;30487;48.716;9.272;2023-08-21T03:23:23;22.80;99.90
44767;DHT22;30487;48.716;9.272;2023-08-21T03:25:52;22.80;99.90
44767;DHT22;30487;48.716;9.272;2023-08-21T03:28:18;22.80;99.90
44767;DHT22;30487;48.716;9.272;2023-08-21T03:30:43;22.80;99.90
44767;DHT22;30487;48.716;9.272;2023-08-21T03:33:09;22.80;99.90
44767;DHT22;30487;48.716;9.272;2023-08-21T03:35:34;22.90;99.90
44767;DHT22;30487;48.716;9.272;2023-08-21T03:38:00;23.00;99.90
44767;DHT22;30487;48.716;9.272;2023-08-21T03:40:25;23.10;99.90
44767;DHT22;30487;48.716;9.272;2023-08-21T03:42:51;23.10;99.90
44767;DHT22;30487;48.716;9.272;2023-08-21T03:45:16;23.30;99.90
44767;DHT22;30487;48.716;9.272;2023-08-21T03:47:42;23.30;99.90
44767;DHT22;30487;48.716;9.272;2023-08-21T03:50:08;23.30;99.90
44767;DHT22;30487;48.716;9.272;2023-08-21T03:52:34;23.30;99.90
44767;DHT22;30487;48.716;9.272;2023-08-21T03:54:59;23.30;99.90
44767;DHT22;30487;48.716;9.272;2023-08-21T03:57:25;23.30;99.90
44767;DHT22;30487;48.716;9.272;2023-08-21T03:59:50;23.30;99.90
44767;DHT22;30487;48.716;9.272;2023-08-21T04:02:16;23.30;99.90
44767;DHT22;30487;48.716;9.272;2023-08-21T04:04:41;23.40;99.90
44767;DHT22;30487;48.716;9.272;2023-08-21T04:07:07;23.40;99.90
44767;DHT22;30487;48.716;9.272;2023-08-21T04:09:32;23.40;99.90
44767;DHT22;30487;48.716;9.272;2023-08-21T04:11:58;23.30;99.90
44767;DHT22;30487;48.716;9.272;2023-08-21T04:14:23;23.30;99.90
44767;DHT22;30487;48.716;9.272;2023-08-21T04:16:49;23.30;99.90
44767;DHT22;30487;48.716;9.272;2023-08-21T04:19:15;23.30;99.90
44767;DHT22;30487;48.716;9.272;2023-08-21T04:21:40;23.30;99.90
44767;DHT22;30487;48.716;9.272;2023-08-21T04:24:06;23.30;99.90
44767;DHT22;30487;48.716;9.272;2023-08-21T04:26:31;23.20;99.90
44767;DHT22;30487;48.716;9.272;2023-08-21T04:28:57;23.20;99.90
44767;DHT22;30487;48.716;9.272;2023-08-21T04:31:22;23.20;99.90
44767;DHT22;30487;48.716;9.272;2023-08-21T04:33:48;23.10;99.90
44767;DHT22;30487;48.716;9.272;2023-08-21T04:36:17;23.10;99.90
44767;DHT22;30487;48.716;9.272;2023-08-21T04:38:43;23.10;99.90
44767;DHT22;30487;48.716;9.272;2023-08-21T04:41:09;23.10;99.90
44767;DHT22;30487;48.716;9.272;2023-08-21T04:43:35;23.10;99.90
44767;DHT22;30487;48.716;9.272;2023-08-21T04:46:01;23.00;99.90
44767;DHT22;30487;48.716;9.272;2023-08-21T04:48:26;23.00;99.90
44767;DHT22;30487;48.716;9.272;2023-08-21T04:50:52;23.00;99.90
44767;DHT22;30487;48.716;9.272;2023-08-21T04:53:17;23.00;99.90
44767;DHT22;30487;48.716;9.272;2023-08-21T04:55:43;23.00;99.90
44767;DHT22;30487;48.716;9.272;2023-08-21T04:58:09;23.00;99.90
44767;DHT22;30487;48.716;9.272;2023-08-21T05:00:35;23.00;99.90
44767;DHT22;30487;48.716;9.272;2023-08-21T05:03:01;22.90;99.90
44767;DHT22;30487;48.716;9.272;2023-08-21T05:05:26;22.80;99.90
44767;DHT22;30487;48.716;9.272;2023-08-21T05:07:52;22.70;99.90
44767;DHT22;30487;48.716;9.272;2023-08-21T05:10:18;22.70;99.90
44767;DHT22;30487;48.716;9.272;2023-08-21T05:12:45;22.70;99.90
44767;DHT22;30487;48.716;9.272;2023-08-21T05:15:11;22.70;99.90
44767;DHT22;30487;48.716;9.272;2023-08-21T05:17:36;22.80;99.90
44767;DHT22;30487;48.716;9.272;2023-08-21T05:20:02;22.90;99.90
44767;DHT22;30487;48.716;9.272;2023-08-21T05:22:28;22.80;99.90
44767;DHT22;30487;48.716;9.272;2023-08-21T05:24:54;22.60;99.90
44767;DHT22;30487;48.716;9.272;2023-08-21T05:27:19;22.60;99.90
44767;DHT22;30487;48.716;9.272;2023-08-21T05:29:45;22.50;99.90
44767;DHT22;30487;48.716;9.272;2023-08-21T05:32:10;22.40;99.90
44767;DHT22;30487;48.716;9.272;2023-08-21T05:34:36;22.30;99.90
44767;DHT22;30487;48.716;9.272;2023-08-21T05:37:02;22.20;99.90
44767;DHT22;30487;48.716;9.272;2023-08-21T05:39:28;22.10;99.90
44767;DHT22;30487;48.716;9.272;2023-08-21T05:41:54;21.90;99.90
44767;DHT22;30487;48.716;9.272;2023-08-21T05:44:19;21.90;99.90
44767;DHT22;30487;48.716;9.272;2023-08-21T05:46:45;22.00;99.90
44767;DHT22;30487;48.716;9.272;2023-08-21T05:49:11;22.30;99.90
44767;DHT22;30487;48.716;9.272;2023-08-21T05:51:36;22.40;99.90
44767;DHT22;30487;48.716;9.272;2023-08-21T05:54:02;22.60;99.90
44767;DHT22;30487;48.716;9.272;2023-08-21T05:56:28;22.70;99.90
44767;DHT22;30487;48.716;9.272;2023-08-21T05:58:53;22.80;99.90
44767;DHT22;30487;48.716;9.272;2023-08-21T06:01:19;23.00;99.90
44767;DHT22;30487;48.716;9.272;2023-08-21T06:03:44;23.10;99.90
44767;DHT22;30487;48.716;9.272;2023-08-21T06:06:10;23.30;99.90
44767;DHT22;30487;48.716;9.272;2023-08-21T06:08:35;23.40;99.90
44767;DHT22;30487;48.716;9.272;2023-08-21T06:11:01;23.50;99.90
44767;DHT22;30487;48.716;9.272;2023-08-21T06:13:26;23.60;99.90
44767;DHT22;30487;48.716;9.272;2023-08-21T06:15:53;23.60;99.90
44767;DHT22;30487;48.716;9.272;2023-08-21T06:18:19;23.70;99.90
44767;DHT22;30487;48.716;9.272;2023-08-21T06:20:44;23.80;99.90
44767;DHT22;30487;48.716;9.272;2023-08-21T06:23:10;23.80;99.90
44767;DHT22;30487;48.716;9.272;2023-08-21T06:25:37;23.90;99.90
44767;DHT22;30487;48.716;9.272;2023-08-21T06:28:03;24.00;99.90
44767;DHT22;30487;48.716;9.272;2023-08-21T06:30:28;24.20;99.90
44767;DHT22;30487;48.716;9.272;2023-08-21T06:32:54;24.30;99.90
44767;DHT22;30487;48.716;9.272;2023-08-21T06:35:20;24.40;99.90
44767;DHT22;30487;48.716;9.272;2023-08-21T06:37:45;24.50;99.90
44767;DHT22;30487;48.716;9.272;2023-08-21T06:40:11;24.60;99.90
44767;DHT22;30487;48.716;9.272;2023-08-21T06:42:37;24.60;99.90
44767;DHT22;30487;48.716;9.272;2023-08-21T06:45:04;24.70;99.90
44767;DHT22;30487;48.716;9.272;2023-08-21T06:47:30;24.90;99.90
44767;DHT22;30487;48.716;9.272;2023-08-21T06:49:55;24.90;99.90
44767;DHT22;30487;48.716;9.272;2023-08-21T06:52:21;24.90;99.90
44767;DHT22;30487;48.716;9.272;2023-08-21T06:54:46;25.00;99.90
44767;DHT22;30487;48.716;9.272;2023-08-21T06:57:12;25.00;99.90
44767;DHT22;30487;48.716;9.272;2023-08-21T06:59:37;25.10;99.90
44767;DHT22;30487;48.716;9.272;2023-08-21T07:02:03;25.20;99.90
44767;DHT22;30487;48.716;9.272;2023-08-21T07:04:29;25.30;99.90
44767;DHT22;30487;48.716;9.272;2023-08-21T07:06:55;25.40;99.90
44767;DHT22;30487;48.716;9.272;2023-08-21T07:09:20;25.40;99.90
44767;DHT22;30487;48.716;9.272;2023-08-21T07:11:46;25.50;99.90
44767;DHT22;30487;48.716;9.272;2023-08-21T07:14:11;25.50;99.90
44767;DHT22;30487;48.716;9.272;2023-08-21T07:16:39;25.50;99.90
44767;DHT22;30487;48.716;9.272;2023-08-21T07:19:05;25.60;99.90
44767;DHT22;30487;48.716;9.272;2023-08-21T07:21:30;25.70;99.90
44767;DHT22;30487;48.716;9.272;2023-08-21T07:23:56;25.80;99.90
44767;DHT22;30487;48.716;9.272;2023-08-21T07:26:21;26.00;99.90
44767;DHT22;30487;48.716;9.272;2023-08-21T07:28:47;26.10;99.90
44767;DHT22;30487;48.716;9.272;2023-08-21T07:31:12;26.00;99.90
44767;DHT22;30487;48.716;9.272;2023-08-21T07:33:38;26.10;99.90
44767;DHT22;30487;48.716;9.272;2023-08-21T07:36:05;26.10;99.90
44767;DHT22;30487;48.716;9.272;2023-08-21T07:38:31;26.20;99.90
44767;DHT22;30487;48.716;9.272;2023-08-21T07:41:08;26.30;99.90
44767;DHT22;30487;48.716;9.272;2023-08-21T07:43:36;26.60;99.90
44767;DHT22;30487;48.716;9.272;2023-08-21T07:46:05;26.80;99.90
44767;DHT22;30487;48.716;9.272;2023-08-21T07:48:31;27.00;99.90
44767;DHT22;30487;48.716;9.272;2023-08-21T07:50:57;27.20;99.90
44767;DHT22;30487;48.716;9.272;2023-08-21T07:53:24;27.40;99.90
44767;DHT22;30487;48.716;9.272;2023-08-21T07:55:50;27.60;99.90
44767;DHT22;30487;48.716;9.272;2023-08-21T07:58:16;27.80;99.90
44767;DHT22;30487;48.716;9.272;2023-08-21T08:00:42;27.90;99.90
44767;DHT22;30487;48.716;9.272;2023-08-21T08:03:08;27.90;99.90
44767;DHT22;30487;48.716;9.272;2023-08-21T08:05:34;27.90;99.90
44767;DHT22;30487;48.716;9.272;2023-08-21T08:08:00;28.00;99.90
44767;DHT22;30487;48.716;9.272;2023-08-21T08:10:25;28.20;99.90
44767;DHT22;30487;48.716;9.272;2023-08-21T08:12:51;28.30;99.90
44767;DHT22;30487;48.716;9.272;2023-08-21T08:15:17;28.40;99.90
44767;DHT22;30487;48.716;9.272;2023-08-21T08:17:43;28.60;99.90
44767;DHT22;30487;48.716;9.272;2023-08-21T08:20:11;28.80;99.90
44767;DHT22;30487;48.716;9.272;2023-08-21T08:22:37;28.90;99.90
44767;DHT22;30487;48.716;9.272;2023-08-21T08:25:03;28.90;99.90
44767;DHT22;30487;48.716;9.272;2023-08-21T08:27:29;29.10;99.90
44767;DHT22;30487;48.716;9.272;2023-08-21T08:29:54;29.30;99.90
44767;DHT22;30487;48.716;9.272;2023-08-21T08:32:20;29.50;99.90
44767;DHT22;30487;48.716;9.272;2023-08-21T08:34:45;29.70;99.90
44767;DHT22;30487;48.716;9.272;2023-08-21T08:37:12;29.90;99.90
44767;DHT22;30487;48.716;9.272;2023-08-21T08:39:37;30.10;99.90
44767;DHT22;30487;48.716;9.272;2023-08-21T08:42:05;30.20;99.90
44767;DHT22;30487;48.716;9.272;2023-08-21T08:44:34;30.20;99.90
44767;DHT22;30487;48.716;9.272;2023-08-21T08:47:01;30.00;99.90
44767;DHT22;30487;48.716;9.272;2023-08-21T08:49:27;29.90;99.90
44767;DHT22;30487;48.716;9.272;2023-08-21T08:51:54;29.80;99.90
44767;DHT22;30487;48.716;9.272;2023-08-21T08:54:21;30.00;99.90
44767;DHT22;30487;48.716;9.272;2023-08-21T08:56:47;30.10;99.90
44767;DHT22;30487;48.716;9.272;2023-08-21T08:59:13;30.20;99.90
44767;DHT22;30487;48.716;9.272;2023-08-21T09:01:40;30.60;99.90
44767;DHT22;30487;48.716;9.272;2023-08-21T09:04:06;31.00;99.90
44767;DHT22;30487;48.716;9.272;2023-08-21T09:06:32;31.40;99.90
44767;DHT22;30487;48.716;9.272;2023-08-21T09:08:58;31.80;99.90
44767;DHT22;30487;48.716;9.272;2023-08-21T09:11:24;32.10;99.90
44767;DHT22;30487;48.716;9.272;2023-08-21T09:13:51;32.20;99.90
44767;DHT22;30487;48.716;9.272;2023-08-21T09:16:20;32.40;99.90
44767;DHT22;30487;48.716;9.272;2023-08-21T09:18:50;32.60;99.90
44767;DHT22;30487;48.716;9.272;2023-08-21T09:21:20;32.70;99.90
44767;DHT22;30487;48.716;9.272;2023-08-21T09:23:46;32.60;99.90
44767;DHT22;30487;48.716;9.272;2023-08-21T09:26:19;32.60;99.90
44767;DHT22;30487;48.716;9.272;2023-08-21T09:28:49;32.70;99.90
44767;DHT22;30487;48.716;9.272;2023-08-21T09:31:16;32.80;99.90
44767;DHT22;30487;48.716;9.272;2023-08-21T09:33:42;33.10;99.90
44767;DHT22;30487;48.716;9.272;2023-08-21T09:36:09;33.30;99.90
44767;DHT22;30487;48.716;9.272;2023-08-21T09:38:38;33.40;99.80
44767;DHT22;30487;48.716;9.272;2023-08-21T09:41:05;33.60;99.20
44767;DHT22;30487;48.716;9.272;2023-08-21T09:43:31;33.60;99.20
44767;DHT22;30487;48.716;9.272;2023-08-21T09:45:57;33.80;98.40
44767;DHT22;30487;48.716;9.272;2023-08-21T09:48:23;33.90;98.20
44767;DHT22;30487;48.716;9.272;2023-08-21T09:50:51;34.10;97.70
44767;DHT22;30487;48.716;9.272;2023-08-21T09:53:17;34.20;97.50
44767;DHT22;30487;48.716;9.272;2023-08-21T09:55:43;34.30;97.30
44767;DHT22;30487;48.716;9.272;2023-08-21T09:58:09;34.40;97.70
44767;DHT22;30487;48.716;9.272;2023-08-21T10:00:37;34.50;96.80
44767;DHT22;30487;48.716;9.272;2023-08-21T10:03:05;34.50;96.60
44767;DHT22;30487;48.716;9.272;2023-08-21T10:05:32;34.40;96.30
44767;DHT22;30487;48.716;9.272;2023-08-21T10:08:01;34.50;96.40
44767;DHT22;30487;48.716;9.272;2023-08-21T10:10:38;34.70;96.00
44767;DHT22;30487;48.716;9.272;2023-08-21T10:13:05;34.90;95.50
44767;DHT22;30487;48.716;9.272;2023-08-21T10:15:32;34.50;95.00
44767;DHT22;30487;48.716;9.272;2023-08-21T10:18:24;34.30;95.80
44767;DHT22;30487;48.716;9.272;2023-08-21T10:20:51;34.40;95.60
44767;DHT22;30487;48.716;9.272;2023-08-21T10:23:27;34.70;95.50
44767;DHT22;30487;48.716;9.272;2023-08-21T10:25:58;35.00;94.90
44767;DHT22;30487;48.716;9.272;2023-08-21T10:28:24;35.20;94.90
44767;DHT22;30487;48.716;9.272;2023-08-21T10:30:50;35.40;93.90
44767;DHT22;30487;48.716;9.272;2023-08-21T10:33:16;35.60;93.50
44767;DHT22;30487;48.716;9.272;2023-08-21T10:35:42;35.70;92.20
44767;DHT22;30487;48.716;9.272;2023-08-21T10:38:09;35.70;92.20
44767;DHT22;30487;48.716;9.272;2023-08-21T10:40:36;35.80;91.30
44767;DHT22;30487;48.716;9.272;2023-08-21T10:43:02;35.90;90.80
44767;DHT22;30487;48.716;9.272;2023-08-21T10:45:29;35.70;90.40
44767;DHT22;30487;48.716;9.272;2023-08-21T10:48:00;35.80;90.30
44767;DHT22;30487;48.716;9.272;2023-08-21T10:50:26;36.00;89.10
44767;DHT22;30487;48.716;9.272;2023-08-21T10:52:53;36.10;90.00
44767;DHT22;30487;48.716;9.272;2023-08-21T10:55:19;36.10;90.50
44767;DHT22;30487;48.716;9.272;2023-08-21T10:57:49;36.40;88.60
44767;DHT22;30487;48.716;9.272;2023-08-21T11:00:17;36.50;87.00
44767;DHT22;30487;48.716;9.272;2023-08-21T11:02:44;36.60;86.60
44767;DHT22;30487;48.716;9.272;2023-08-21T11:05:11;36.40;87.80
44767;DHT22;30487;48.716;9.272;2023-08-21T11:07:39;36.70;87.40
44767;DHT22;30487;48.716;9.272;2023-08-21T11:10:08;36.80;87.00
44767;DHT22;30487;48.716;9.272;2023-08-21T11:12:35;36.90;86.20
44767;DHT22;30487;48.716;9.272;2023-08-21T11:15:01;37.00;85.40
44767;DHT22;30487;48.716;9.272;2023-08-21T11:17:27;37.10;84.90
44767;DHT22;30487;48.716;9.272;2023-08-21T11:19:52;37.20;84.80
44767;DHT22;30487;48.716;9.272;2023-08-21T11:22:18;37.10;82.50
44767;DHT22;30487;48.716;9.272;2023-08-21T11:24:46;36.70;84.90
44767;DHT22;30487;48.716;9.272;2023-08-21T11:27:14;36.70;84.60
44767;DHT22;30487;48.716;9.272;2023-08-21T11:29:42;36.90;83.90
44767;DHT22;30487;48.716;9.272;2023-08-21T11:32:14;37.10;83.90
44767;DHT22;30487;48.716;9.272;2023-08-21T11:34:51;37.40;83.70
44767;DHT22;30487;48.716;9.272;2023-08-21T11:37:19;37.80;83.60
44767;DHT22;30487;48.716;9.272;2023-08-21T11:39:49;38.10;82.10
44767;DHT22;30487;48.716;9.272;2023-08-21T11:42:18;38.30;81.10
44767;DHT22;30487;48.716;9.272;2023-08-21T11:44:46;38.40;82.60
44767;DHT22;30487;48.716;9.272;2023-08-21T11:47:12;38.60;79.80
44767;DHT22;30487;48.716;9.272;2023-08-21T11:49:40;38.50;79.50
44767;DHT22;30487;48.716;9.272;2023-08-21T11:52:07;38.50;80.10
44767;DHT22;30487;48.716;9.272;2023-08-21T11:54:37;38.80;79.00
44767;DHT22;30487;48.716;9.272;2023-08-21T11:57:07;38.90;77.90
44767;DHT22;30487;48.716;9.272;2023-08-21T11:59:33;39.00;77.10
44767;DHT22;30487;48.716;9.272;2023-08-21T12:01:59;39.10;75.70
44767;DHT22;30487;48.716;9.272;2023-08-21T12:04:25;39.20;75.80
44767;DHT22;30487;48.716;9.272;2023-08-21T12:06:50;39.20;75.10
44767;DHT22;30487;48.716;9.272;2023-08-21T12:09:16;39.20;74.50
44767;DHT22;30487;48.716;9.272;2023-08-21T12:11:44;39.30;74.70
44767;DHT22;30487;48.716;9.272;2023-08-21T12:14:10;39.40;74.00
44767;DHT22;30487;48.716;9.272;2023-08-21T12:16:35;39.60;73.70
44767;DHT22;30487;48.716;9.272;2023-08-21T12:19:01;39.70;74.00
44767;DHT22;30487;48.716;9.272;2023-08-21T12:21:28;39.80;73.40
44767;DHT22;30487;48.716;9.272;2023-08-21T12:23:54;39.50;73.20
44767;DHT22;30487;48.716;9.272;2023-08-21T12:26:20;39.50;73.30
44767;DHT22;30487;48.716;9.272;2023-08-21T12:28:49;39.50;73.60
44767;DHT22;30487;48.716;9.272;2023-08-21T12:31:15;39.70;72.00
44767;DHT22;30487;48.716;9.272;2023-08-21T12:33:40;39.80;71.40
44767;DHT22;30487;48.716;9.272;2023-08-21T12:36:06;39.80;72.30
44767;DHT22;30487;48.716;9.272;2023-08-21T12:38:34;39.80;72.40
44767;DHT22;30487;48.716;9.272;2023-08-21T12:41:01;39.50;71.80
44767;DHT22;30487;48.716;9.272;2023-08-21T12:43:26;39.00;72.10
44767;DHT22;30487;48.716;9.272;2023-08-21T12:45:52;38.30;73.00
44767;DHT22;30487;48.716;9.272;2023-08-21T12:48:19;38.00;73.60
44767;DHT22;30487;48.716;9.272;2023-08-21T12:50:45;38.30;73.00
44767;DHT22;30487;48.716;9.272;2023-08-21T12:53:11;38.60;72.50
44767;DHT22;30487;48.716;9.272;2023-08-21T12:55:36;38.80;71.10
44767;DHT22;30487;48.716;9.272;2023-08-21T12:58:02;38.60;71.00
44767;DHT22;30487;48.716;9.272;2023-08-21T13:00:28;38.20;71.10
44767;DHT22;30487;48.716;9.272;2023-08-21T13:02:53;37.40;73.20
44767;DHT22;30487;48.716;9.272;2023-08-21T13:05:19;36.70;74.60
44767;DHT22;30487;48.716;9.272;2023-08-21T13:07:44;36.20;76.00
44767;DHT22;30487;48.716;9.272;2023-08-21T13:10:10;35.90;76.60
44767;DHT22;30487;48.716;9.272;2023-08-21T13:12:36;35.70;76.90
44767;DHT22;30487;48.716;9.272;2023-08-21T13:15:02;35.70;77.50
44767;DHT22;30487;48.716;9.272;2023-08-21T13:17:28;36.10;77.30
44767;DHT22;30487;48.716;9.272;2023-08-21T13:19:54;36.80;77.40
44767;DHT22;30487;48.716;9.272;2023-08-21T13:22:19;37.40;74.90
44767;DHT22;30487;48.716;9.272;2023-08-21T13:24:45;37.80;72.60
44767;DHT22;30487;48.716;9.272;2023-08-21T13:27:10;37.90;71.80
44767;DHT22;30487;48.716;9.272;2023-08-21T13:29:37;37.90;72.10
44767;DHT22;30487;48.716;9.272;2023-08-21T13:32:03;38.00;71.70
44767;DHT22;30487;48.716;9.272;2023-08-21T13:34:29;38.00;71.30
44767;DHT22;30487;48.716;9.272;2023-08-21T13:36:54;37.90;71.40
44767;DHT22;30487;48.716;9.272;2023-08-21T13:39:20;38.00;71.00
44767;DHT22;30487;48.716;9.272;2023-08-21T13:41:48;37.60;71.10
44767;DHT22;30487;48.716;9.272;2023-08-21T13:44:14;36.90;71.70
44767;DHT22;30487;48.716;9.272;2023-08-21T13:46:40;37.10;73.50
44767;DHT22;30487;48.716;9.272;2023-08-21T13:49:05;37.50;72.50
44767;DHT22;30487;48.716;9.272;2023-08-21T13:51:31;37.60;72.30
44767;DHT22;30487;48.716;9.272;2023-08-21T13:53:57;37.30;71.70
44767;DHT22;30487;48.716;9.272;2023-08-21T13:56:22;36.80;71.90
44767;DHT22;30487;48.716;9.272;2023-08-21T13:58:48;36.30;73.20
44767;DHT22;30487;48.716;9.272;2023-08-21T14:01:13;36.30;74.40
44767;DHT22;30487;48.716;9.272;2023-08-21T14:03:40;36.20;74.50
44767;DHT22;30487;48.716;9.272;2023-08-21T14:06:06;36.10;73.90
44767;DHT22;30487;48.716;9.272;2023-08-21T14:08:36;36.20;73.00
44767;DHT22;30487;48.716;9.272;2023-08-21T14:11:01;36.40;73.30
44767;DHT22;30487;48.716;9.272;2023-08-21T14:13:27;36.90;74.30
44767;DHT22;30487;48.716;9.272;2023-08-21T14:15:52;37.70;73.40
44767;DHT22;30487;48.716;9.272;2023-08-21T14:18:18;39.00;72.10
44767;DHT22;30487;48.716;9.272;2023-08-21T14:20:43;40.10;69.50
44767;DHT22;30487;48.716;9.272;2023-08-21T14:23:09;40.10;68.10
44767;DHT22;30487;48.716;9.272;2023-08-21T14:25:35;40.00;69.30
44767;DHT22;30487;48.716;9.272;2023-08-21T14:28:02;39.90;70.20
44767;DHT22;30487;48.716;9.272;2023-08-21T14:30:28;39.70;67.30
44767;DHT22;30487;48.716;9.272;2023-08-21T14:32:54;40.00;68.10
44767;DHT22;30487;48.716;9.272;2023-08-21T14:35:19;40.90;67.40
44767;DHT22;30487;48.716;9.272;2023-08-21T14:37:45;41.60;66.10
44767;DHT22;30487;48.716;9.272;2023-08-21T14:40:10;40.50;67.10
44767;DHT22;30487;48.716;9.272;2023-08-21T14:42:37;39.60;68.50
44767;DHT22;30487;48.716;9.272;2023-08-21T14:45:03;38.80;68.90
44767;DHT22;30487;48.716;9.272;2023-08-21T14:47:28;38.20;69.50
44767;DHT22;30487;48.716;9.272;2023-08-21T14:49:54;37.50;70.00
44767;DHT22;30487;48.716;9.272;2023-08-21T14:52:20;37.20;71.50
44767;DHT22;30487;48.716;9.272;2023-08-21T14:54:48;37.10;72.20
44767;DHT22;30487;48.716;9.272;2023-08-21T14:57:13;37.00;72.10
44767;DHT22;30487;48.716;9.272;2023-08-21T14:59:39;36.90;71.90
44767;DHT22;30487;48.716;9.272;2023-08-21T15:02:04;36.70;72.20
44767;DHT22;30487;48.716;9.272;2023-08-21T15:04:30;36.60;72.50
44767;DHT22;30487;48.716;9.272;2023-08-21T15:06:55;36.60;72.40
44767;DHT22;30487;48.716;9.272;2023-08-21T15:09:21;36.60;72.70
44767;DHT22;30487;48.716;9.272;2023-08-21T15:11:47;36.70;72.70
44767;DHT22;30487;48.716;9.272;2023-08-21T15:14:12;36.60;71.80
44767;DHT22;30487;48.716;9.272;2023-08-21T15:16:38;36.70;72.00
44767;DHT22;30487;48.716;9.272;2023-08-21T15:19:04;36.80;70.90
44767;DHT22;30487;48.716;9.272;2023-08-21T15:21:29;37.30;70.20
44767;DHT22;30487;48.716;9.272;2023-08-21T15:23:55;37.50;68.40
44767;DHT22;30487;48.716;9.272;2023-08-21T15:26:21;38.20;68.70
44767;DHT22;30487;48.716;9.272;2023-08-21T15:28:47;38.40;67.40